createdAt,value
2022-08-17T00:00:52.290Z,100053.16
2022-08-17T00:03:02.786Z,100053.69
2022-08-17T00:05:08.135Z,100051.97
2022-08-17T00:07:13.120Z,100055.13
2022-08-17T00:09:18.509Z,100052.16
2022-08-17T00:11:33.370Z,100058.34
2022-08-17T00:13:41.749Z,100053.78
2022-08-17T00:16:00.061Z,100059.25
2022-08-17T00:18:04.443Z,100047.47
2022-08-17T00:20:33.437Z,100047.47
2022-08-17T00:22:36.986Z,100042.41
2022-08-17T00:24:44.825Z,100046.91
2022-08-17T00:26:47.377Z,100048.22
2022-08-17T00:28:51.700Z,100045.38
2022-08-17T00:30:56.032Z,100047.03
2022-08-17T00:33:14.351Z,100046.44
2022-08-17T00:35:23.880Z,100043.25
2022-08-17T00:37:28.784Z,100050.91
2022-08-17T00:39:57.312Z,100052.19
2022-08-17T00:41:59.241Z,100060.50
2022-08-17T00:44:05.994Z,100060.84
2022-08-17T00:46:26.857Z,100068.03
2022-08-17T00:48:31.040Z,100061.66
2022-08-17T00:50:33.300Z,100058.34
2022-08-17T00:52:56.218Z,100052.56
2022-08-17T00:55:24.718Z,100054.47
2022-08-17T00:57:53.348Z,100055.75
2022-08-17T01:00:16.264Z,100066.69
2022-08-17T01:02:42.044Z,100064.47
2022-08-17T01:05:02.299Z,100060.72
2022-08-17T01:07:19.843Z,100059.66
2022-08-17T01:09:29.857Z,100062.22
2022-08-17T01:11:37.425Z,100065.88
2022-08-17T01:14:09.153Z,100058.19
2022-08-17T01:16:29.974Z,100060.63
2022-08-17T01:18:33.717Z,100052.34
2022-08-17T01:21:03.410Z,100056.00
2022-08-17T01:23:07.423Z,100060.75
2022-08-17T01:25:16.229Z,100055.47
2022-08-17T01:27:20.537Z,100062.72
2022-08-17T01:29:49.326Z,100065.97
2022-08-17T01:32:08.159Z,100066.31
2022-08-17T01:34:16.473Z,100073.69
2022-08-17T01:36:19.795Z,100070.16
2022-08-17T01:38:27.200Z,100069.72
2022-08-17T01:40:46.654Z,100064.63
2022-08-17T01:42:59.567Z,100062.53
2022-08-17T01:45:24.879Z,100064.50
2022-08-17T01:47:37.607Z,100062.81
2022-08-17T01:49:49.601Z,100061.22
2022-08-17T01:51:57.697Z,100071.47
2022-08-17T01:54:10.837Z,100062.84
2022-08-17T01:56:16.328Z,100069.66
2022-08-17T01:58:24.257Z,100066.63
2022-08-17T02:00:59.539Z,100072.53
2022-08-17T02:03:02.068Z,100075.88
2022-08-17T02:05:09.988Z,100075.06
2022-08-17T02:07:26.136Z,100074.34
2022-08-17T02:09:34.246Z,100071.75
2022-08-17T02:11:40.308Z,100068.84
2022-08-17T02:14:05.381Z,100070.34
2022-08-17T02:16:19.671Z,100074.25
2022-08-17T02:18:45.193Z,100080.50
2022-08-17T02:20:54.305Z,100076.88
2022-08-17T02:23:00.691Z,100073.41
2022-08-17T02:25:19.218Z,100072.44
2022-08-17T02:27:21.073Z,100071.94
2022-08-17T02:29:28.790Z,100068.31
2022-08-17T02:31:31.316Z,100074.00
2022-08-17T02:33:56.912Z,100073.13
2022-08-17T02:36:27.416Z,100081.88
2022-08-17T02:38:41.073Z,100080.16
2022-08-17T02:40:47.783Z,100083.16
2022-08-17T02:42:51.014Z,100081.75
2022-08-17T02:45:15.784Z,100086.88
2022-08-17T02:47:20.909Z,100091.50
2022-08-17T02:49:24.811Z,100084.66
2022-08-17T02:51:28.062Z,100090.53
2022-08-17T02:54:39.131Z,100090.44
2022-08-17T02:56:32.115Z,100093.03
2022-08-17T02:58:58.914Z,100096.47
2022-08-17T03:01:01.959Z,100087.81
2022-08-17T03:03:06.284Z,100089.41
2022-08-17T03:05:12.866Z,100087.97
2022-08-17T03:07:16.877Z,100080.09
2022-08-17T03:09:27.036Z,100077.53
2022-08-17T03:11:30.899Z,100079.19
2022-08-17T03:13:32.939Z,100076.97
2022-08-17T03:15:35.846Z,100082.31
2022-08-17T03:17:46.290Z,100085.44
2022-08-17T03:19:51.266Z,100085.50
2022-08-17T03:21:55.146Z,100093.34
2022-08-17T03:23:57.913Z,100086.56
2022-08-17T03:26:02.893Z,100094.00
2022-08-17T03:28:06.471Z,100090.47
2022-08-17T03:30:15.824Z,100098.16
2022-08-17T03:32:17.974Z,100099.34
2022-08-17T03:35:01.391Z,100106.50
2022-08-17T03:37:46.912Z,100110.44
2022-08-17T03:39:59.070Z,100111.63
2022-08-17T03:42:31.870Z,100120.59
2022-08-17T03:44:41.609Z,100114.88
2022-08-17T03:47:01.923Z,100107.97
2022-08-17T03:49:25.332Z,100111.03
2022-08-17T03:51:56.119Z,100111.56
2022-08-17T03:54:18.461Z,100117.38
2022-08-17T03:56:40.056Z,100117.75
2022-08-17T03:58:51.704Z,100125.03
2022-08-17T04:01:05.151Z,100121.97
2022-08-17T04:03:08.199Z,100124.50
2022-08-17T04:05:11.129Z,100127.81
2022-08-17T04:07:14.078Z,100124.75
2022-08-17T04:09:17.064Z,100131.81
2022-08-17T04:11:22.403Z,100135.63
2022-08-17T04:13:37.990Z,100140.13
2022-08-17T04:15:59.446Z,100135.44
2022-08-17T04:18:11.076Z,100132.41
2022-08-17T04:20:29.420Z,100130.00
2022-08-17T04:22:34.333Z,100126.34
2022-08-17T04:24:39.542Z,100128.16
2022-08-17T04:26:53.117Z,100131.13
2022-08-17T04:28:58.729Z,100132.44
2022-08-17T04:31:25.743Z,100121.59
2022-08-17T04:33:30.115Z,100131.06
2022-08-17T04:35:39.847Z,100123.94
2022-08-17T04:37:42.767Z,100123.00
2022-08-17T04:40:33.513Z,100124.59
2022-08-17T04:42:41.568Z,100129.06
2022-08-17T04:44:59.545Z,100128.84
2022-08-17T04:47:04.785Z,100124.06
2022-08-17T04:49:11.025Z,100128.84
2022-08-17T04:51:26.535Z,100122.88
2022-08-17T04:53:28.472Z,100110.28
2022-08-17T04:55:30.566Z,100111.19
2022-08-17T04:57:40.576Z,100106.72
2022-08-17T04:59:54.174Z,100104.22
2022-08-17T05:01:56.140Z,100098.31
2022-08-17T05:04:02.387Z,100097.06
2022-08-17T05:06:36.026Z,100101.56
2022-08-17T05:08:37.978Z,100106.63
2022-08-17T05:10:45.567Z,100100.16
2022-08-17T05:12:47.842Z,100100.88
2022-08-17T05:14:49.898Z,100089.75
2022-08-17T05:16:53.821Z,100088.34
2022-08-17T05:18:56.830Z,100084.63
2022-08-17T05:21:00.950Z,100092.88
2022-08-17T05:23:07.866Z,100092.63
2022-08-17T05:25:09.990Z,100097.78
2022-08-17T05:27:19.031Z,100092.78
2022-08-17T05:29:21.276Z,100097.44
2022-08-17T05:31:38.716Z,100094.00
2022-08-17T05:33:56.985Z,100101.19
2022-08-17T05:36:02.241Z,100089.84
2022-08-17T05:38:09.201Z,100099.44
2022-08-17T05:40:11.668Z,100092.75
2022-08-17T05:42:19.250Z,100094.97
2022-08-17T05:44:26.899Z,100099.00
2022-08-17T05:46:41.963Z,100092.75
2022-08-17T05:48:56.354Z,100094.56
2022-08-17T05:51:59.612Z,100093.56
2022-08-17T05:54:42.023Z,100094.09
2022-08-17T05:56:52.270Z,100093.66
2022-08-17T05:59:00.957Z,100090.75
2022-08-17T06:01:17.259Z,100097.38
2022-08-17T06:03:57.685Z,100101.59
2022-08-17T06:06:31.105Z,100095.53
2022-08-17T06:09:03.476Z,100104.78
2022-08-17T06:11:27.335Z,100101.66
2022-08-17T06:13:55.830Z,100102.22
2022-08-17T06:16:02.815Z,100096.22
2022-08-17T06:18:19.012Z,100104.63
2022-08-17T06:20:21.367Z,100110.13
2022-08-17T06:22:52.830Z,100111.84
2022-08-17T06:25:02.772Z,100122.66
2022-08-17T06:27:12.419Z,100121.63
2022-08-17T06:29:39.779Z,100123.75
2022-08-17T06:31:42.524Z,100123.44
2022-08-17T06:33:58.783Z,100125.19
2022-08-17T06:36:35.554Z,100113.78
2022-08-17T06:43:02.173Z,100107.44
2022-08-17T06:44:51.729Z,100112.84
2022-08-17T06:47:04.292Z,100112.84
2022-08-17T06:49:22.222Z,100109.88
2022-08-17T06:52:05.606Z,100112.06
2022-08-17T06:54:46.136Z,100114.88
2022-08-17T06:56:57.607Z,100101.63
2022-08-17T06:59:03.175Z,100109.84
2022-08-17T07:01:21.394Z,100097.34
2022-08-17T07:03:54.646Z,100108.00
2022-08-17T07:06:18.633Z,100106.34
2022-08-17T07:08:38.208Z,100108.72
2022-08-17T07:10:47.320Z,100112.84
2022-08-17T07:13:03.489Z,100111.25
2022-08-17T07:15:16.692Z,100123.59
2022-08-17T07:17:21.895Z,100117.25
2022-08-17T07:19:50.455Z,100115.13
2022-08-17T07:22:18.258Z,100109.09
2022-08-17T07:24:37.483Z,100106.88
2022-08-17T07:26:40.444Z,100113.31
2022-08-17T07:28:45.025Z,100108.22
2022-08-17T07:30:51.614Z,100110.84
2022-08-17T07:33:02.588Z,100126.00
2022-08-17T07:35:37.559Z,100119.38
2022-08-17T07:38:24.129Z,100110.34
2022-08-17T07:40:35.516Z,100115.44
2022-08-17T07:42:44.918Z,100117.75
2022-08-17T07:44:54.394Z,100111.50
2022-08-17T07:47:19.938Z,100114.19
2022-08-17T07:49:24.170Z,100121.00
2022-08-17T07:51:48.919Z,100113.75
2022-08-17T07:53:51.836Z,100114.50
2022-08-17T07:55:54.844Z,100116.56
2022-08-17T07:58:00.301Z,100114.66
2022-08-17T08:00:02.274Z,100117.91
2022-08-17T08:02:17.274Z,100119.06
2022-08-17T08:05:02.068Z,100113.84
2022-08-17T08:07:08.789Z,100115.22
2022-08-17T08:09:32.858Z,100109.88
2022-08-17T08:11:44.354Z,100112.41
2022-08-17T08:14:19.048Z,100115.63
2022-08-17T08:17:00.220Z,100111.63
2022-08-17T08:19:21.110Z,100101.03
2022-08-17T08:21:37.244Z,100107.91
2022-08-17T08:24:30.797Z,100109.94
2022-08-17T08:27:12.620Z,100113.88
2022-08-17T08:29:38.218Z,100109.66
2022-08-17T08:32:11.087Z,100109.88
2022-08-17T08:35:02.905Z,100103.66
2022-08-17T08:37:42.975Z,100108.41
2022-08-17T08:40:23.857Z,100114.56
2022-08-17T08:43:12.879Z,100112.28
2022-08-17T08:45:52.549Z,100114.22
2022-08-17T08:48:46.063Z,100113.34
2022-08-17T08:51:00.278Z,100108.72
2022-08-17T08:53:43.019Z,100118.50
2022-08-17T08:56:19.074Z,100107.34
2022-08-17T08:58:59.625Z,100118.16
2022-08-17T09:01:16.937Z,100125.28
2022-08-17T09:03:53.124Z,100123.91
2022-08-17T09:06:32.457Z,100125.25
2022-08-17T09:09:00.729Z,100121.84
2022-08-17T09:11:11.056Z,100126.50
2022-08-17T09:13:54.265Z,100121.69
2022-08-17T09:16:36.330Z,100125.13
2022-08-17T09:19:04.774Z,100121.81
2022-08-17T09:21:52.819Z,100125.91
2022-08-17T09:24:13.002Z,100126.75
2022-08-17T09:26:44.383Z,100128.94
2022-08-17T09:29:01.761Z,100125.34
2022-08-17T09:31:24.293Z,100122.84
2022-08-17T09:33:53.997Z,100133.41
2022-08-17T09:36:04.189Z,100131.00
2022-08-17T09:38:28.022Z,100135.31
2022-08-17T09:40:43.538Z,100143.84
2022-08-17T09:42:51.558Z,100137.31
2022-08-17T09:45:08.823Z,100135.44
2022-08-17T09:47:46.873Z,100128.72
2022-08-17T09:49:56.683Z,100130.44
2022-08-17T09:52:24.857Z,100129.84
2022-08-17T09:54:40.016Z,100131.81
2022-08-17T09:57:31.484Z,100130.41
2022-08-17T09:59:53.956Z,100129.44
2022-08-17T10:02:18.913Z,100130.66
2022-08-17T10:04:58.324Z,100129.34
2022-08-17T10:07:34.212Z,100135.69
2022-08-17T10:09:50.284Z,100133.09
2022-08-17T10:12:18.037Z,100127.16
2022-08-17T10:15:07.903Z,100116.19
2022-08-17T10:17:36.609Z,100130.13
2022-08-17T10:19:55.341Z,100124.72
2022-08-17T10:22:34.617Z,100118.38
2022-08-17T10:25:22.732Z,100118.22
2022-08-17T10:27:52.590Z,100136.31
2022-08-17T10:30:21.880Z,100126.97
2022-08-17T10:33:04.634Z,100131.16
2022-08-17T10:35:43.841Z,100124.47
2022-08-17T10:37:59.463Z,100136.28
2022-08-17T10:40:31.305Z,100132.63
2022-08-17T10:42:59.387Z,100131.47
2022-08-17T10:45:15.790Z,100136.13
2022-08-17T10:47:19.655Z,100134.75
2022-08-17T10:49:29.579Z,100126.38
2022-08-17T10:51:42.202Z,100129.59
2022-08-17T10:53:58.467Z,100122.41
2022-08-17T10:56:12.788Z,100122.19
2022-08-17T10:58:22.209Z,100122.53
2022-08-17T11:00:40.430Z,100120.53
2022-08-17T11:03:02.208Z,100128.72
2022-08-17T11:05:28.925Z,100127.38
2022-08-17T11:08:09.021Z,100129.16
2022-08-17T11:11:02.332Z,100123.06
2022-08-17T11:16:59.181Z,100127.84
2022-08-17T11:19:36.779Z,100133.41
2022-08-17T11:22:17.937Z,100133.19
2022-08-17T11:24:51.628Z,100131.84
2022-08-17T11:27:33.733Z,100131.31
2022-08-17T11:30:01.816Z,100122.34
2022-08-17T11:32:28.494Z,100123.72
2022-08-17T11:34:33.680Z,100126.63
2022-08-17T11:36:45.733Z,100129.53
2022-08-17T11:39:00.485Z,100124.69
2022-08-17T11:41:45.337Z,100129.78
2022-08-17T11:43:56.629Z,100119.56
2022-08-17T11:46:25.805Z,100122.81
2022-08-17T11:49:15.512Z,100121.84
2022-08-17T11:51:34.822Z,100125.94
2022-08-17T11:53:37.925Z,100126.50
2022-08-17T11:55:44.877Z,100119.13
2022-08-17T11:58:28.259Z,100108.84
2022-08-17T12:00:47.412Z,100101.81
2022-08-17T12:03:12.368Z,100100.69
2022-08-17T12:05:41.260Z,100107.28
2022-08-17T12:08:05.769Z,100108.53
2022-08-17T12:10:34.558Z,100110.69
2022-08-17T12:12:44.282Z,100105.59
2022-08-17T12:15:10.096Z,100103.03
2022-08-17T12:17:40.658Z,100104.25
2022-08-17T12:19:53.330Z,100104.06
2022-08-17T12:22:16.754Z,100104.94
2022-08-17T12:24:31.560Z,100104.88
2022-08-17T12:26:44.353Z,100111.34
2022-08-17T12:28:49.366Z,100107.47
2022-08-17T12:30:53.271Z,100112.53
2022-08-17T12:33:25.411Z,100116.25
2022-08-17T12:35:35.539Z,100113.59
2022-08-17T12:37:47.427Z,100110.81
2022-08-17T12:40:42.232Z,100110.59
2022-08-17T12:43:06.882Z,100117.09
2022-08-17T12:46:13.347Z,100119.53
2022-08-17T12:48:24.464Z,100128.41
2022-08-17T12:50:30.243Z,100121.81
2022-08-17T12:52:33.631Z,100121.94
2022-08-17T12:54:40.474Z,100127.81
2022-08-17T12:56:46.531Z,100126.28
2022-08-17T12:59:02.485Z,100135.97
2022-08-17T13:01:18.022Z,100122.13
2022-08-17T13:03:26.715Z,100124.25
2022-08-17T13:05:37.133Z,100124.09
2022-08-17T13:07:44.835Z,100116.59
2022-08-17T13:09:51.784Z,100114.78
2022-08-17T13:11:58.812Z,100109.28
2022-08-17T13:14:10.470Z,100107.47
2022-08-17T13:16:15.318Z,100103.16
2022-08-17T13:18:39.924Z,100102.25
2022-08-17T13:20:59.590Z,100100.72
2022-08-17T13:23:21.027Z,100090.19
2022-08-17T13:25:25.039Z,100087.59
2022-08-17T13:27:36.000Z,100085.50
2022-08-17T13:30:07.764Z,100087.88
2022-08-17T13:32:20.382Z,100087.13
2022-08-17T13:34:27.411Z,100088.56
2022-08-17T13:36:36.992Z,100094.84
2022-08-17T13:38:49.925Z,100091.63
2022-08-17T13:40:59.023Z,100096.75
2022-08-17T13:43:03.551Z,100111.00
2022-08-17T13:45:35.389Z,100098.97
2022-08-17T13:47:44.868Z,100103.84
2022-08-17T13:49:55.651Z,100101.75
2022-08-17T13:51:58.694Z,100108.03
2022-08-17T13:54:07.368Z,100112.22
2022-08-17T13:56:47.075Z,100119.94
2022-08-17T13:59:15.441Z,100106.97
2022-08-17T14:01:37.171Z,100113.84
2022-08-17T14:03:39.155Z,100112.50
2022-08-17T14:05:54.367Z,100113.16
2022-08-17T14:08:06.872Z,100108.94
2022-08-17T14:10:18.646Z,100108.84
2022-08-17T14:12:25.291Z,100106.41
2022-08-17T14:14:36.895Z,100106.34
2022-08-17T14:16:41.921Z,100112.81
2022-08-17T14:18:57.478Z,100103.69
2022-08-17T14:21:10.401Z,100100.41
2022-08-17T14:23:13.663Z,100102.03
2022-08-17T14:25:28.775Z,100103.03
2022-08-17T14:27:41.806Z,100106.53
2022-08-17T14:29:55.940Z,100109.50
2022-08-17T14:32:13.395Z,100110.63
2022-08-17T14:34:24.180Z,100107.03
2022-08-17T14:36:26.464Z,100107.78
2022-08-17T14:38:30.493Z,100102.72
2022-08-17T14:40:38.080Z,100110.13
2022-08-17T14:42:43.107Z,100111.59
2022-08-17T14:44:55.314Z,100108.94
2022-08-17T14:47:16.165Z,100114.78
2022-08-17T14:49:26.576Z,100108.09
2022-08-17T14:51:30.157Z,100109.75
2022-08-17T14:53:46.158Z,100108.44
2022-08-17T14:55:51.421Z,100108.75
2022-08-17T14:58:01.703Z,100101.78
2022-08-17T15:00:05.098Z,100110.13
2022-08-17T15:02:11.148Z,100107.50
2022-08-17T15:04:23.232Z,100102.78
2022-08-17T15:07:03.992Z,100114.38
2022-08-17T15:09:10.556Z,100103.31
2022-08-17T15:11:37.242Z,100099.16
2022-08-17T15:13:53.620Z,100098.84
2022-08-17T15:16:02.693Z,100109.06
2022-08-17T15:18:08.710Z,100104.84
2022-08-17T15:20:15.199Z,100107.59
2022-08-17T15:22:27.399Z,100099.38
2022-08-17T15:24:46.250Z,100094.75
2022-08-17T15:26:53.327Z,100095.91
2022-08-17T15:29:01.415Z,100101.41
2022-08-17T15:31:07.001Z,100108.53
2022-08-17T15:33:18.142Z,100109.22
2022-08-17T15:35:30.117Z,100108.13
2022-08-17T15:37:36.579Z,100106.25
2022-08-17T15:39:56.432Z,100105.19
2022-08-17T15:42:04.816Z,100110.66
2022-08-17T15:44:08.762Z,100101.56
2022-08-17T15:46:20.780Z,100105.22
2022-08-17T15:48:42.441Z,100103.03
2022-08-17T15:50:45.636Z,100102.78
2022-08-17T15:53:05.140Z,100109.94
2022-08-17T15:55:18.691Z,100108.41
2022-08-17T15:57:41.891Z,100110.69
2022-08-17T15:59:45.080Z,100110.47
2022-08-17T16:03:15.225Z,100107.25
2022-08-17T16:04:26.611Z,100109.44
2022-08-17T16:06:36.257Z,100109.44
2022-08-17T16:08:43.984Z,100115.78
2022-08-17T16:10:48.724Z,100115.53
2022-08-17T16:13:00.611Z,100107.84
2022-08-17T16:15:09.304Z,100112.53
2022-08-17T16:17:39.730Z,100111.97
2022-08-17T16:20:07.403Z,100120.78
2022-08-17T16:22:42.490Z,100112.25
2022-08-17T16:25:02.219Z,100110.28
2022-08-17T16:27:12.588Z,100117.47
2022-08-17T16:29:25.188Z,100108.09
2022-08-17T16:31:29.611Z,100116.06
2022-08-17T16:34:15.563Z,100119.06
2022-08-17T16:36:17.358Z,100112.91
2022-08-17T16:38:19.574Z,100115.94
2022-08-17T16:40:26.943Z,100112.59
2022-08-17T16:42:39.875Z,100113.13
2022-08-17T16:44:52.818Z,100112.34
2022-08-17T16:46:58.682Z,100124.63
2022-08-17T16:49:04.090Z,100125.47
2022-08-17T16:51:27.697Z,100116.31
2022-08-17T16:53:33.272Z,100127.06
2022-08-17T16:55:40.041Z,100124.78
2022-08-17T16:57:50.330Z,100132.00
2022-08-17T17:00:17.566Z,100125.38
2022-08-17T17:02:37.044Z,100133.47
2022-08-17T17:05:01.360Z,100137.03
2022-08-17T17:07:47.994Z,100137.06
2022-08-17T17:09:57.382Z,100138.13
2022-08-17T17:12:09.880Z,100130.41
2022-08-17T17:14:29.790Z,100132.34
2022-08-17T17:16:54.759Z,100139.19
2022-08-17T17:19:36.661Z,100146.34
2022-08-17T17:21:49.464Z,100146.38
2022-08-17T17:24:17.007Z,100143.88
2022-08-17T17:26:39.684Z,100145.25
2022-08-17T17:29:06.641Z,100143.88
2022-08-17T17:31:18.611Z,100156.25
2022-08-17T17:34:05.148Z,100155.44
2022-08-17T17:36:27.240Z,100163.41
2022-08-17T17:38:48.216Z,100168.63
2022-08-17T17:40:54.017Z,100169.19
2022-08-17T17:43:39.663Z,100174.66
2022-08-17T17:45:59.873Z,100177.44
2022-08-17T17:48:41.588Z,100178.25
2022-08-17T17:52:06.537Z,100177.66
2022-08-17T17:54:34.275Z,100179.34
2022-08-17T17:56:46.392Z,100182.34
2022-08-17T17:58:53.916Z,100186.19
2022-08-17T18:01:14.591Z,100184.81
2022-08-17T18:04:03.501Z,100180.97
2022-08-17T18:06:47.465Z,100186.72
2022-08-17T18:09:03.015Z,100199.06
2022-08-17T18:11:26.373Z,100202.03
2022-08-17T18:14:15.015Z,100213.53
2022-08-17T18:17:06.855Z,100210.50
2022-08-17T18:19:28.206Z,100209.88
2022-08-17T18:21:44.611Z,100203.00
2022-08-17T18:23:58.081Z,100208.72
2022-08-17T18:26:06.916Z,100204.81
2022-08-17T18:28:09.811Z,100202.63
2022-08-17T18:30:30.081Z,100208.06
2022-08-17T18:32:42.752Z,100205.88
2022-08-17T18:34:56.004Z,100215.97
2022-08-17T18:36:57.986Z,100210.50
2022-08-17T18:39:18.359Z,100219.50
2022-08-17T18:41:24.722Z,100222.50
2022-08-17T18:43:52.659Z,100224.44
2022-08-17T18:45:57.749Z,100235.91
2022-08-17T18:48:25.629Z,100231.25
2022-08-17T18:50:45.887Z,100223.22
2022-08-17T18:52:48.992Z,100221.78
2022-08-17T18:55:21.298Z,100231.13
2022-08-17T18:57:33.046Z,100234.06
2022-08-17T18:59:48.519Z,100236.78
2022-08-17T19:02:24.934Z,100234.53
2022-08-17T19:05:00.000Z,100235.84
2022-08-17T19:07:12.862Z,100248.41
2022-08-17T19:09:38.750Z,100248.34
2022-08-17T19:11:58.393Z,100249.34
2022-08-17T19:14:18.358Z,100253.28
2022-08-17T19:16:49.311Z,100241.88
2022-08-17T19:18:59.123Z,100245.91
2022-08-17T19:21:38.925Z,100249.16
2022-08-17T19:23:54.593Z,100250.81
2022-08-17T19:26:01.950Z,100254.22
2022-08-17T19:28:22.575Z,100245.25
2022-08-17T19:30:26.305Z,100252.84
2022-08-17T19:32:35.663Z,100257.28
2022-08-17T19:34:52.605Z,100251.50
2022-08-17T19:37:03.069Z,100252.56
2022-08-17T19:39:55.797Z,100252.00
2022-08-17T19:42:33.155Z,100258.72
2022-08-17T19:45:09.250Z,100260.94
2022-08-17T19:48:04.534Z,100268.34
2022-08-17T19:50:23.780Z,100267.88
2022-08-17T19:52:53.178Z,100269.09
2022-08-17T19:55:20.767Z,100267.69
2022-08-17T19:57:49.541Z,100268.56
2022-08-17T20:00:13.186Z,100280.91
2022-08-17T20:02:45.567Z,100277.91
2022-08-17T20:04:51.211Z,100277.78
2022-08-17T20:07:06.409Z,100276.91
2022-08-17T20:09:44.808Z,100274.66
2022-08-17T20:12:05.268Z,100277.09
2022-08-17T20:14:53.417Z,100283.88
2022-08-17T20:17:14.433Z,100287.72
2022-08-17T20:19:48.164Z,100291.50
2022-08-17T20:21:58.303Z,100291.19
2022-08-17T20:24:06.093Z,100292.31
2022-08-17T20:26:35.562Z,100298.41
2022-08-17T20:29:40.359Z,100287.41
2022-08-17T20:31:51.678Z,100299.41
2022-08-17T20:33:53.926Z,100292.56
2022-08-17T20:36:26.086Z,100293.69
2022-08-17T20:38:44.892Z,100288.16
2022-08-17T20:40:56.830Z,100295.34
2022-08-17T20:43:19.558Z,100297.66
2022-08-17T20:45:23.624Z,100300.00
2022-08-17T20:47:27.595Z,100304.78
2022-08-17T20:50:00.399Z,100317.13
2022-08-17T20:52:16.864Z,100324.91
2022-08-17T20:54:40.633Z,100338.47
2022-08-17T20:56:47.535Z,100343.06
2022-08-17T20:58:49.589Z,100333.84
2022-08-17T21:00:56.583Z,100338.97
2022-08-17T21:03:39.959Z,100338.16
2022-08-17T21:06:03.227Z,100342.06
2022-08-17T21:13:57.731Z,100361.78
2022-08-17T21:16:27.614Z,100361.19
2022-08-17T21:18:39.103Z,100364.25
2022-08-17T21:21:00.620Z,100363.66
2022-08-17T21:23:08.511Z,100362.13
2022-08-17T21:25:19.374Z,100360.75
2022-08-17T21:27:26.706Z,100364.19
2022-08-17T21:29:33.922Z,100361.94
2022-08-17T21:32:03.493Z,100368.06
2022-08-17T21:34:17.635Z,100364.41
2022-08-17T21:36:26.438Z,100363.53
2022-08-17T21:38:48.099Z,100359.59
2022-08-17T21:40:53.115Z,100344.97
2022-08-17T21:42:58.500Z,100338.00
2022-08-17T21:45:37.041Z,100341.72
2022-08-17T21:47:45.400Z,100349.56
2022-08-17T21:49:48.027Z,100341.13
2022-08-17T21:51:54.913Z,100335.50
2022-08-17T21:54:00.716Z,100331.81
2022-08-17T21:56:03.127Z,100330.25
2022-08-17T21:58:29.300Z,100339.91
2022-08-17T22:00:33.279Z,100332.59
2022-08-17T22:02:42.003Z,100327.69
2022-08-17T22:05:00.203Z,100333.81
2022-08-17T22:07:06.892Z,100328.44
2022-08-17T22:09:17.058Z,100330.41
2022-08-17T22:11:19.970Z,100324.72
2022-08-17T22:13:24.427Z,100329.63
2022-08-17T22:15:31.618Z,100330.09
2022-08-17T22:17:38.482Z,100326.09
2022-08-17T22:19:44.311Z,100334.81
2022-08-17T22:21:47.265Z,100331.88
2022-08-17T22:24:16.171Z,100335.81
2022-08-17T22:26:20.353Z,100336.06
2022-08-17T22:28:43.060Z,100327.03
2022-08-17T22:31:14.440Z,100331.84
2022-08-17T22:33:37.417Z,100328.69
2022-08-17T22:35:43.460Z,100326.78
2022-08-17T22:37:46.043Z,100322.41
2022-08-17T22:39:57.814Z,100322.31
2022-08-17T22:42:01.066Z,100316.34
2022-08-17T22:44:23.347Z,100316.25
2022-08-17T22:46:26.349Z,100314.59
2022-08-17T22:48:31.365Z,100315.41
2022-08-17T22:50:35.368Z,100316.66
2022-08-17T22:52:57.138Z,100313.94
2022-08-17T22:55:24.794Z,100315.72
2022-08-17T22:57:45.683Z,100311.19
2022-08-17T22:59:52.482Z,100315.22
2022-08-17T23:02:18.138Z,100308.47
2022-08-17T23:04:36.080Z,100299.38
2022-08-17T23:06:42.440Z,100297.00
2022-08-17T23:08:54.725Z,100301.38
2022-08-17T23:10:57.098Z,100296.06
2022-08-17T23:13:00.609Z,100291.91
2022-08-17T23:15:03.850Z,100292.88
2022-08-17T23:17:06.704Z,100294.88
2022-08-17T23:19:10.585Z,100297.47
2022-08-17T23:21:13.499Z,100292.88
2022-08-17T23:23:23.969Z,100295.22
2022-08-17T23:25:29.267Z,100293.59
2022-08-17T23:27:31.863Z,100294.06
2022-08-17T23:29:35.157Z,100301.28
2022-08-17T23:31:38.874Z,100307.31
2022-08-17T23:33:42.697Z,100296.66
2022-08-17T23:35:44.769Z,100288.59
2022-08-17T23:37:46.668Z,100291.31
2022-08-17T23:39:48.572Z,100295.94
2022-08-17T23:41:53.676Z,100298.06
2022-08-17T23:46:17.726Z,100290.16
2022-08-17T23:48:32.454Z,100286.50
2022-08-17T23:50:39.086Z,100286.50
2022-08-17T23:52:43.663Z,100282.56
2022-08-17T23:54:47.644Z,100286.97
2022-08-17T23:56:50.657Z,100283.53
2022-08-17T23:58:55.315Z,100272.38
